sensor_id;sensor_type;location;lat;lon;timestamp;temperature;humidity
11188;DHT22;5650;52.700;7.306;2023-10-13T00:00:38;16.00;99.90
11188;DHT22;5650;52.700;7.306;2023-10-13T00:03:07;16.00;99.90
11188;DHT22;5650;52.700;7.306;2023-10-13T00:05:43;16.00;99.90
11188;DHT22;5650;52.700;7.306;2023-10-13T00:08:15;16.00;99.90
11188;DHT22;5650;52.700;7.306;2023-10-13T00:10:46;16.00;99.90
11188;DHT22;5650;52.700;7.306;2023-10-13T00:13:13;16.00;99.90
11188;DHT22;5650;52.700;7.306;2023-10-13T00:15:47;16.00;99.90
11188;DHT22;5650;52.700;7.306;2023-10-13T00:18:23;16.00;99.90
11188;DHT22;5650;52.700;7.306;2023-10-13T00:20:55;16.10;99.90
11188;DHT22;5650;52.700;7.306;2023-10-13T00:23:25;16.10;99.90
11188;DHT22;5650;52.700;7.306;2023-10-13T00:25:53;16.10;99.90
11188;DHT22;5650;52.700;7.306;2023-10-13T00:28:25;16.10;99.90
11188;DHT22;5650;52.700;7.306;2023-10-13T00:30:56;16.10;99.90
11188;DHT22;5650;52.700;7.306;2023-10-13T00:33:36;16.10;99.90
11188;DHT22;5650;52.700;7.306;2023-10-13T00:36:04;16.10;99.90
11188;DHT22;5650;52.700;7.306;2023-10-13T00:38:34;16.10;99.90
11188;DHT22;5650;52.700;7.306;2023-10-13T00:41:05;16.10;99.90
11188;DHT22;5650;52.700;7.306;2023-10-13T00:43:45;16.10;99.90
11188;DHT22;5650;52.700;7.306;2023-10-13T00:46:26;16.20;99.90
11188;DHT22;5650;52.700;7.306;2023-10-13T00:48:59;16.10;99.90
11188;DHT22;5650;52.700;7.306;2023-10-13T00:51:28;16.10;99.90
11188;DHT22;5650;52.700;7.306;2023-10-13T00:54:11;16.20;99.90
11188;DHT22;5650;52.700;7.306;2023-10-13T00:56:38;16.20;99.90
11188;DHT22;5650;52.700;7.306;2023-10-13T00:59:15;16.20;99.90
11188;DHT22;5650;52.700;7.306;2023-10-13T01:01:43;16.20;99.90
11188;DHT22;5650;52.700;7.306;2023-10-13T01:04:11;16.20;99.90
11188;DHT22;5650;52.700;7.306;2023-10-13T01:06:44;16.20;99.90
11188;DHT22;5650;52.700;7.306;2023-10-13T01:09:16;16.20;99.90
11188;DHT22;5650;52.700;7.306;2023-10-13T01:11:44;16.20;99.90
11188;DHT22;5650;52.700;7.306;2023-10-13T01:14:18;16.20;99.90
11188;DHT22;5650;52.700;7.306;2023-10-13T01:16:49;16.20;99.90
11188;DHT22;5650;52.700;7.306;2023-10-13T01:19:18;16.20;99.90
11188;DHT22;5650;52.700;7.306;2023-10-13T01:21:53;16.20;99.90
11188;DHT22;5650;52.700;7.306;2023-10-13T01:24:34;16.20;99.90
11188;DHT22;5650;52.700;7.306;2023-10-13T01:27:00;16.20;99.90
11188;DHT22;5650;52.700;7.306;2023-10-13T01:29:42;16.20;99.90
11188;DHT22;5650;52.700;7.306;2023-10-13T01:32:13;16.30;99.90
11188;DHT22;5650;52.700;7.306;2023-10-13T01:34:41;16.30;99.90
11188;DHT22;5650;52.700;7.306;2023-10-13T01:37:11;16.30;99.90
11188;DHT22;5650;52.700;7.306;2023-10-13T01:39:43;16.30;99.90
11188;DHT22;5650;52.700;7.306;2023-10-13T01:42:13;16.30;99.90
11188;DHT22;5650;52.700;7.306;2023-10-13T01:44:45;16.30;99.90
11188;DHT22;5650;52.700;7.306;2023-10-13T01:47:12;16.30;99.90
11188;DHT22;5650;52.700;7.306;2023-10-13T01:49:38;16.30;99.90
11188;DHT22;5650;52.700;7.306;2023-10-13T01:52:11;16.30;99.90
11188;DHT22;5650;52.700;7.306;2023-10-13T01:54:37;16.30;99.90
11188;DHT22;5650;52.700;7.306;2023-10-13T01:57:10;16.30;99.90
11188;DHT22;5650;52.700;7.306;2023-10-13T01:59:47;16.30;99.90
11188;DHT22;5650;52.700;7.306;2023-10-13T02:02:14;16.30;99.90
11188;DHT22;5650;52.700;7.306;2023-10-13T02:04:41;16.30;99.90
11188;DHT22;5650;52.700;7.306;2023-10-13T02:07:14;16.30;99.90
11188;DHT22;5650;52.700;7.306;2023-10-13T02:09:41;16.30;99.90
11188;DHT22;5650;52.700;7.306;2023-10-13T02:12:10;16.30;99.90
11188;DHT22;5650;52.700;7.306;2023-10-13T02:14:46;16.30;99.90
11188;DHT22;5650;52.700;7.306;2023-10-13T02:17:13;16.30;99.90
11188;DHT22;5650;52.700;7.306;2023-10-13T02:19:39;16.30;99.90
11188;DHT22;5650;52.700;7.306;2023-10-13T02:22:20;16.30;99.90
11188;DHT22;5650;52.700;7.306;2023-10-13T02:24:59;16.30;99.90
11188;DHT22;5650;52.700;7.306;2023-10-13T02:27:34;16.30;99.90
11188;DHT22;5650;52.700;7.306;2023-10-13T02:30:11;16.30;99.90
11188;DHT22;5650;52.700;7.306;2023-10-13T02:32:40;16.30;99.90
11188;DHT22;5650;52.700;7.306;2023-10-13T02:35:15;16.30;99.90
11188;DHT22;5650;52.700;7.306;2023-10-13T02:37:43;16.30;99.90
11188;DHT22;5650;52.700;7.306;2023-10-13T02:40:11;16.30;99.90
11188;DHT22;5650;52.700;7.306;2023-10-13T02:42:43;16.30;99.90
11188;DHT22;5650;52.700;7.306;2023-10-13T02:45:09;16.30;99.90
11188;DHT22;5650;52.700;7.306;2023-10-13T02:47:38;16.30;99.90
11188;DHT22;5650;52.700;7.306;2023-10-13T02:50:10;16.30;99.90
11188;DHT22;5650;52.700;7.306;2023-10-13T02:52:38;16.30;99.90
11188;DHT22;5650;52.700;7.306;2023-10-13T02:55:13;16.30;99.90
11188;DHT22;5650;52.700;7.306;2023-10-13T02:57:43;16.30;99.90
11188;DHT22;5650;52.700;7.306;2023-10-13T03:00:16;16.30;99.90
11188;DHT22;5650;52.700;7.306;2023-10-13T03:02:43;16.30;99.90
11188;DHT22;5650;52.700;7.306;2023-10-13T03:05:24;16.30;99.90
11188;DHT22;5650;52.700;7.306;2023-10-13T03:07:54;16.30;99.90
11188;DHT22;5650;52.700;7.306;2023-10-13T03:10:22;16.30;99.90
11188;DHT22;5650;52.700;7.306;2023-10-13T03:12:56;16.30;99.90
11188;DHT22;5650;52.700;7.306;2023-10-13T03:15:23;16.30;99.90
11188;DHT22;5650;52.700;7.306;2023-10-13T03:17:58;16.30;99.90
11188;DHT22;5650;52.700;7.306;2023-10-13T03:20:29;16.30;99.90
11188;DHT22;5650;52.700;7.306;2023-10-13T03:23:13;16.30;99.90
11188;DHT22;5650;52.700;7.306;2023-10-13T03:25:42;16.30;99.90
11188;DHT22;5650;52.700;7.306;2023-10-13T03:28:11;16.30;99.90
11188;DHT22;5650;52.700;7.306;2023-10-13T03:30:45;16.30;99.90
11188;DHT22;5650;52.700;7.306;2023-10-13T03:33:13;16.30;99.90
11188;DHT22;5650;52.700;7.306;2023-10-13T03:35:51;16.40;99.90
11188;DHT22;5650;52.700;7.306;2023-10-13T03:38:26;16.40;99.90
11188;DHT22;5650;52.700;7.306;2023-10-13T03:40:53;16.40;99.90
11188;DHT22;5650;52.700;7.306;2023-10-13T03:43:34;16.30;99.90
11188;DHT22;5650;52.700;7.306;2023-10-13T03:46:10;16.40;99.90
11188;DHT22;5650;52.700;7.306;2023-10-13T03:48:45;16.30;99.90
11188;DHT22;5650;52.700;7.306;2023-10-13T03:51:20;16.30;99.90
11188;DHT22;5650;52.700;7.306;2023-10-13T03:53:47;16.30;99.90
11188;DHT22;5650;52.700;7.306;2023-10-13T03:56:20;16.40;99.90
11188;DHT22;5650;52.700;7.306;2023-10-13T03:58:59;16.40;99.90
11188;DHT22;5650;52.700;7.306;2023-10-13T04:01:37;16.40;99.90
11188;DHT22;5650;52.700;7.306;2023-10-13T04:04:32;16.40;99.90
11188;DHT22;5650;52.700;7.306;2023-10-13T04:07:14;16.40;99.90
11188;DHT22;5650;52.700;7.306;2023-10-13T04:09:58;16.40;99.90
11188;DHT22;5650;52.700;7.306;2023-10-13T04:12:51;16.40;99.90
11188;DHT22;5650;52.700;7.306;2023-10-13T04:15:37;16.40;99.90
11188;DHT22;5650;52.700;7.306;2023-10-13T04:18:09;16.40;99.90
11188;DHT22;5650;52.700;7.306;2023-10-13T04:20:59;16.40;99.90
11188;DHT22;5650;52.700;7.306;2023-10-13T04:23:44;16.40;99.90
11188;DHT22;5650;52.700;7.306;2023-10-13T04:26:25;16.40;99.90
11188;DHT22;5650;52.700;7.306;2023-10-13T04:29:02;16.40;99.90
11188;DHT22;5650;52.700;7.306;2023-10-13T04:31:38;16.40;99.90
11188;DHT22;5650;52.700;7.306;2023-10-13T04:34:23;16.40;99.90
11188;DHT22;5650;52.700;7.306;2023-10-13T04:36:54;16.40;99.90
11188;DHT22;5650;52.700;7.306;2023-10-13T04:39:37;16.40;99.90
11188;DHT22;5650;52.700;7.306;2023-10-13T04:42:07;16.40;99.90
11188;DHT22;5650;52.700;7.306;2023-10-13T04:44:52;16.40;99.90
11188;DHT22;5650;52.700;7.306;2023-10-13T04:47:28;16.40;99.90
11188;DHT22;5650;52.700;7.306;2023-10-13T04:50:07;16.40;99.90
11188;DHT22;5650;52.700;7.306;2023-10-13T04:52:47;16.40;99.90
11188;DHT22;5650;52.700;7.306;2023-10-13T04:55:27;16.40;99.90
11188;DHT22;5650;52.700;7.306;2023-10-13T04:58:13;16.40;99.90
11188;DHT22;5650;52.700;7.306;2023-10-13T05:01:09;16.40;99.90
11188;DHT22;5650;52.700;7.306;2023-10-13T05:04:04;16.30;99.90
11188;DHT22;5650;52.700;7.306;2023-10-13T05:06:47;16.40;99.90
11188;DHT22;5650;52.700;7.306;2023-10-13T05:09:32;16.40;99.90
11188;DHT22;5650;52.700;7.306;2023-10-13T05:12:16;16.30;99.90
11188;DHT22;5650;52.700;7.306;2023-10-13T05:15:01;16.30;99.90
11188;DHT22;5650;52.700;7.306;2023-10-13T05:17:45;16.30;99.90
11188;DHT22;5650;52.700;7.306;2023-10-13T05:20:31;16.30;99.90
11188;DHT22;5650;52.700;7.306;2023-10-13T05:23:15;16.30;99.90
11188;DHT22;5650;52.700;7.306;2023-10-13T05:26:03;16.30;99.90
11188;DHT22;5650;52.700;7.306;2023-10-13T05:28:50;16.30;99.90
11188;DHT22;5650;52.700;7.306;2023-10-13T05:31:39;16.30;99.90
11188;DHT22;5650;52.700;7.306;2023-10-13T05:34:23;16.30;99.90
11188;DHT22;5650;52.700;7.306;2023-10-13T05:37:12;16.30;99.90
11188;DHT22;5650;52.700;7.306;2023-10-13T05:39:56;16.30;99.90
11188;DHT22;5650;52.700;7.306;2023-10-13T05:42:40;16.30;99.90
11188;DHT22;5650;52.700;7.306;2023-10-13T05:45:31;16.30;99.90
11188;DHT22;5650;52.700;7.306;2023-10-13T05:48:24;16.30;99.90
11188;DHT22;5650;52.700;7.306;2023-10-13T05:51:11;16.30;99.90
11188;DHT22;5650;52.700;7.306;2023-10-13T05:53:57;16.30;99.90
11188;DHT22;5650;52.700;7.306;2023-10-13T05:56:51;16.30;99.90
11188;DHT22;5650;52.700;7.306;2023-10-13T05:59:37;16.30;99.90
11188;DHT22;5650;52.700;7.306;2023-10-13T06:02:23;16.30;99.90
11188;DHT22;5650;52.700;7.306;2023-10-13T06:05:08;16.30;99.90
11188;DHT22;5650;52.700;7.306;2023-10-13T06:07:53;16.30;99.90
11188;DHT22;5650;52.700;7.306;2023-10-13T06:10:40;16.30;99.90
11188;DHT22;5650;52.700;7.306;2023-10-13T06:13:28;16.30;99.90
11188;DHT22;5650;52.700;7.306;2023-10-13T06:16:14;16.30;99.90
11188;DHT22;5650;52.700;7.306;2023-10-13T06:18:59;16.30;99.90
11188;DHT22;5650;52.700;7.306;2023-10-13T06:21:44;16.30;99.90
11188;DHT22;5650;52.700;7.306;2023-10-13T06:24:29;16.30;99.90
11188;DHT22;5650;52.700;7.306;2023-10-13T06:27:16;16.30;99.90
11188;DHT22;5650;52.700;7.306;2023-10-13T06:30:01;16.30;99.90
11188;DHT22;5650;52.700;7.306;2023-10-13T06:32:30;16.30;99.90
11188;DHT22;5650;52.700;7.306;2023-10-13T06:34:59;16.30;99.90
11188;DHT22;5650;52.700;7.306;2023-10-13T06:37:37;16.30;99.90
11188;DHT22;5650;52.700;7.306;2023-10-13T06:40:12;16.30;99.90
11188;DHT22;5650;52.700;7.306;2023-10-13T06:42:52;16.30;99.90
11188;DHT22;5650;52.700;7.306;2023-10-13T06:45:21;16.30;99.90
11188;DHT22;5650;52.700;7.306;2023-10-13T06:47:49;16.30;99.90
11188;DHT22;5650;52.700;7.306;2023-10-13T06:50:19;16.20;99.90
11188;DHT22;5650;52.700;7.306;2023-10-13T06:52:50;16.30;99.90
11188;DHT22;5650;52.700;7.306;2023-10-13T06:55:20;16.30;99.90
11188;DHT22;5650;52.700;7.306;2023-10-13T06:57:54;16.30;99.90
11188;DHT22;5650;52.700;7.306;2023-10-13T07:00:28;16.30;99.90
11188;DHT22;5650;52.700;7.306;2023-10-13T07:03:00;16.40;99.90
11188;DHT22;5650;52.700;7.306;2023-10-13T07:05:39;16.40;99.90
11188;DHT22;5650;52.700;7.306;2023-10-13T07:08:10;16.40;99.90
11188;DHT22;5650;52.700;7.306;2023-10-13T07:10:47;16.50;99.90
11188;DHT22;5650;52.700;7.306;2023-10-13T07:13:18;16.50;99.90
11188;DHT22;5650;52.700;7.306;2023-10-13T07:15:47;16.60;99.90
11188;DHT22;5650;52.700;7.306;2023-10-13T07:18:17;16.60;99.90
11188;DHT22;5650;52.700;7.306;2023-10-13T07:20:48;16.70;99.90
11188;DHT22;5650;52.700;7.306;2023-10-13T07:23:15;16.70;99.90
11188;DHT22;5650;52.700;7.306;2023-10-13T07:25:57;16.80;99.90
11188;DHT22;5650;52.700;7.306;2023-10-13T07:28:29;16.80;99.90
11188;DHT22;5650;52.700;7.306;2023-10-13T07:30:57;16.80;99.90
11188;DHT22;5650;52.700;7.306;2023-10-13T07:33:38;16.90;99.90
11188;DHT22;5650;52.700;7.306;2023-10-13T07:36:08;16.90;99.90
11188;DHT22;5650;52.700;7.306;2023-10-13T07:38:42;17.00;99.90
11188;DHT22;5650;52.700;7.306;2023-10-13T07:41:09;17.00;99.90
11188;DHT22;5650;52.700;7.306;2023-10-13T07:43:42;17.00;99.90
11188;DHT22;5650;52.700;7.306;2023-10-13T07:46:13;17.00;99.90
11188;DHT22;5650;52.700;7.306;2023-10-13T07:48:43;17.10;99.90
11188;DHT22;5650;52.700;7.306;2023-10-13T07:51:19;17.00;99.90
11188;DHT22;5650;52.700;7.306;2023-10-13T07:53:48;17.10;99.90
11188;DHT22;5650;52.700;7.306;2023-10-13T07:56:15;17.10;99.90
11188;DHT22;5650;52.700;7.306;2023-10-13T07:58:49;17.10;99.90
11188;DHT22;5650;52.700;7.306;2023-10-13T08:01:25;17.10;99.90
11188;DHT22;5650;52.700;7.306;2023-10-13T08:03:53;17.20;99.90
11188;DHT22;5650;52.700;7.306;2023-10-13T08:06:39;17.20;99.90
11188;DHT22;5650;52.700;7.306;2023-10-13T08:09:15;17.20;99.90
11188;DHT22;5650;52.700;7.306;2023-10-13T08:11:58;17.20;99.90
11188;DHT22;5650;52.700;7.306;2023-10-13T08:14:27;17.20;99.90
11188;DHT22;5650;52.700;7.306;2023-10-13T08:16:59;17.20;99.90
11188;DHT22;5650;52.700;7.306;2023-10-13T08:19:27;17.30;99.90
11188;DHT22;5650;52.700;7.306;2023-10-13T08:21:58;17.20;99.90
11188;DHT22;5650;52.700;7.306;2023-10-13T08:24:40;17.20;99.90
11188;DHT22;5650;52.700;7.306;2023-10-13T08:27:22;17.30;99.90
11188;DHT22;5650;52.700;7.306;2023-10-13T08:30:16;17.30;99.90
11188;DHT22;5650;52.700;7.306;2023-10-13T08:32:58;17.30;99.90
11188;DHT22;5650;52.700;7.306;2023-10-13T08:35:42;17.40;99.90
11188;DHT22;5650;52.700;7.306;2023-10-13T08:38:23;17.40;99.90
11188;DHT22;5650;52.700;7.306;2023-10-13T08:40:58;17.40;99.90
11188;DHT22;5650;52.700;7.306;2023-10-13T08:43:46;17.50;99.90
11188;DHT22;5650;52.700;7.306;2023-10-13T08:46:19;17.50;99.90
11188;DHT22;5650;52.700;7.306;2023-10-13T08:48:56;17.60;99.90
11188;DHT22;5650;52.700;7.306;2023-10-13T08:51:36;17.60;99.90
11188;DHT22;5650;52.700;7.306;2023-10-13T08:54:18;17.60;99.90
11188;DHT22;5650;52.700;7.306;2023-10-13T08:57:00;17.70;99.90
11188;DHT22;5650;52.700;7.306;2023-10-13T08:59:49;17.70;99.90
11188;DHT22;5650;52.700;7.306;2023-10-13T09:02:22;17.80;99.90
11188;DHT22;5650;52.700;7.306;2023-10-13T09:05:13;17.90;99.90
11188;DHT22;5650;52.700;7.306;2023-10-13T09:07:54;17.90;99.90
11188;DHT22;5650;52.700;7.306;2023-10-13T09:10:22;18.00;99.90
11188;DHT22;5650;52.700;7.306;2023-10-13T09:13:12;18.00;99.90
11188;DHT22;5650;52.700;7.306;2023-10-13T09:15:46;18.10;99.90
11188;DHT22;5650;52.700;7.306;2023-10-13T09:18:29;18.10;99.90
11188;DHT22;5650;52.700;7.306;2023-10-13T09:21:23;18.30;99.90
11188;DHT22;5650;52.700;7.306;2023-10-13T09:24:09;18.40;99.90
11188;DHT22;5650;52.700;7.306;2023-10-13T09:26:47;18.50;99.90
11188;DHT22;5650;52.700;7.306;2023-10-13T09:29:21;18.50;99.90
11188;DHT22;5650;52.700;7.306;2023-10-13T09:31:59;18.60;99.90
11188;DHT22;5650;52.700;7.306;2023-10-13T09:34:27;18.60;99.90
11188;DHT22;5650;52.700;7.306;2023-10-13T09:37:00;18.70;99.90
11188;DHT22;5650;52.700;7.306;2023-10-13T09:39:28;18.80;99.90
11188;DHT22;5650;52.700;7.306;2023-10-13T09:42:10;18.90;99.90
11188;DHT22;5650;52.700;7.306;2023-10-13T09:44:38;18.90;99.90
11188;DHT22;5650;52.700;7.306;2023-10-13T09:47:10;19.00;99.90
11188;DHT22;5650;52.700;7.306;2023-10-13T09:49:47;19.00;99.90
11188;DHT22;5650;52.700;7.306;2023-10-13T09:52:18;19.10;99.90
11188;DHT22;5650;52.700;7.306;2023-10-13T09:55:00;19.10;99.90
11188;DHT22;5650;52.700;7.306;2023-10-13T09:57:37;19.10;99.90
11188;DHT22;5650;52.700;7.306;2023-10-13T10:00:12;19.10;99.90
11188;DHT22;5650;52.700;7.306;2023-10-13T10:03:12;19.20;99.90
11188;DHT22;5650;52.700;7.306;2023-10-13T10:06:00;19.20;99.90
11188;DHT22;5650;52.700;7.306;2023-10-13T10:08:36;19.20;99.90
11188;DHT22;5650;52.700;7.306;2023-10-13T10:14:16;19.20;99.90
11188;DHT22;5650;52.700;7.306;2023-10-13T10:16:57;19.20;99.90
11188;DHT22;5650;52.700;7.306;2023-10-13T10:19:33;19.20;99.90
11188;DHT22;5650;52.700;7.306;2023-10-13T10:22:06;19.10;99.90
11188;DHT22;5650;52.700;7.306;2023-10-13T10:24:55;19.10;99.90
11188;DHT22;5650;52.700;7.306;2023-10-13T10:27:24;19.10;99.90
11188;DHT22;5650;52.700;7.306;2023-10-13T10:29:53;19.10;99.90
11188;DHT22;5650;52.700;7.306;2023-10-13T10:32:20;19.20;99.90
11188;DHT22;5650;52.700;7.306;2023-10-13T10:34:50;19.20;99.90
11188;DHT22;5650;52.700;7.306;2023-10-13T10:37:37;19.30;99.90
11188;DHT22;5650;52.700;7.306;2023-10-13T10:40:13;19.30;99.90
11188;DHT22;5650;52.700;7.306;2023-10-13T10:42:57;19.30;99.90
11188;DHT22;5650;52.700;7.306;2023-10-13T10:45:26;19.40;99.90
11188;DHT22;5650;52.700;7.306;2023-10-13T10:47:58;19.40;99.90
11188;DHT22;5650;52.700;7.306;2023-10-13T10:50:27;19.40;99.90
11188;DHT22;5650;52.700;7.306;2023-10-13T10:53:04;19.40;99.90
11188;DHT22;5650;52.700;7.306;2023-10-13T10:55:34;19.50;99.90
11188;DHT22;5650;52.700;7.306;2023-10-13T10:58:02;19.50;99.90
11188;DHT22;5650;52.700;7.306;2023-10-13T11:00:32;19.60;99.90
11188;DHT22;5650;52.700;7.306;2023-10-13T11:03:11;19.60;99.90
11188;DHT22;5650;52.700;7.306;2023-10-13T11:05:45;19.60;99.90
11188;DHT22;5650;52.700;7.306;2023-10-13T11:08:26;19.60;99.90
11188;DHT22;5650;52.700;7.306;2023-10-13T11:10:59;19.70;99.90
11188;DHT22;5650;52.700;7.306;2023-10-13T11:13:27;19.70;99.90
11188;DHT22;5650;52.700;7.306;2023-10-13T11:15:57;19.80;99.90
11188;DHT22;5650;52.700;7.306;2023-10-13T11:18:44;19.80;99.90
11188;DHT22;5650;52.700;7.306;2023-10-13T11:21:16;19.80;99.90
11188;DHT22;5650;52.700;7.306;2023-10-13T11:23:56;19.90;99.90
11188;DHT22;5650;52.700;7.306;2023-10-13T11:26:33;20.10;99.90
11188;DHT22;5650;52.700;7.306;2023-10-13T11:29:08;20.10;99.90
11188;DHT22;5650;52.700;7.306;2023-10-13T11:31:36;20.20;99.90
11188;DHT22;5650;52.700;7.306;2023-10-13T11:34:09;20.20;99.90
11188;DHT22;5650;52.700;7.306;2023-10-13T11:36:42;20.20;99.90
11188;DHT22;5650;52.700;7.306;2023-10-13T11:39:13;20.20;99.90
11188;DHT22;5650;52.700;7.306;2023-10-13T11:41:44;20.10;99.90
11188;DHT22;5650;52.700;7.306;2023-10-13T11:44:20;20.10;99.90
11188;DHT22;5650;52.700;7.306;2023-10-13T11:46:56;20.10;99.90
11188;DHT22;5650;52.700;7.306;2023-10-13T11:49:33;20.10;99.90
11188;DHT22;5650;52.700;7.306;2023-10-13T11:52:05;20.20;99.90
11188;DHT22;5650;52.700;7.306;2023-10-13T11:54:43;20.20;99.90
11188;DHT22;5650;52.700;7.306;2023-10-13T11:57:10;20.20;99.90
11188;DHT22;5650;52.700;7.306;2023-10-13T11:59:37;20.30;99.90
11188;DHT22;5650;52.700;7.306;2023-10-13T12:02:12;20.40;99.90
11188;DHT22;5650;52.700;7.306;2023-10-13T12:04:56;20.50;99.90
11188;DHT22;5650;52.700;7.306;2023-10-13T12:07:27;20.60;99.90
11188;DHT22;5650;52.700;7.306;2023-10-13T12:10:14;20.70;99.90
11188;DHT22;5650;52.700;7.306;2023-10-13T12:12:46;20.70;99.90
11188;DHT22;5650;52.700;7.306;2023-10-13T12:15:22;20.80;99.90
11188;DHT22;5650;52.700;7.306;2023-10-13T12:18:03;20.90;99.90
11188;DHT22;5650;52.700;7.306;2023-10-13T12:20:33;20.90;99.90
11188;DHT22;5650;52.700;7.306;2023-10-13T12:23:01;20.90;99.90
11188;DHT22;5650;52.700;7.306;2023-10-13T12:25:46;20.90;99.90
11188;DHT22;5650;52.700;7.306;2023-10-13T12:28:29;20.90;99.90
11188;DHT22;5650;52.700;7.306;2023-10-13T12:31:06;20.90;99.90
11188;DHT22;5650;52.700;7.306;2023-10-13T12:33:44;21.00;99.90
11188;DHT22;5650;52.700;7.306;2023-10-13T12:36:13;21.00;99.90
11188;DHT22;5650;52.700;7.306;2023-10-13T12:38:56;21.10;99.90
11188;DHT22;5650;52.700;7.306;2023-10-13T12:41:39;21.20;99.90
11188;DHT22;5650;52.700;7.306;2023-10-13T12:44:24;21.30;99.90
11188;DHT22;5650;52.700;7.306;2023-10-13T12:47:08;21.30;99.90
11188;DHT22;5650;52.700;7.306;2023-10-13T12:50:02;21.20;99.90
11188;DHT22;5650;52.700;7.306;2023-10-13T12:52:42;21.20;99.90
11188;DHT22;5650;52.700;7.306;2023-10-13T12:55:11;21.20;99.90
11188;DHT22;5650;52.700;7.306;2023-10-13T12:57:42;21.20;99.90
11188;DHT22;5650;52.700;7.306;2023-10-13T13:00:12;21.20;99.90
11188;DHT22;5650;52.700;7.306;2023-10-13T13:02:59;21.30;99.90
11188;DHT22;5650;52.700;7.306;2023-10-13T13:05:35;21.20;99.90
11188;DHT22;5650;52.700;7.306;2023-10-13T13:08:15;21.20;99.90
11188;DHT22;5650;52.700;7.306;2023-10-13T13:10:47;21.30;99.90
11188;DHT22;5650;52.700;7.306;2023-10-13T13:13:16;21.30;99.90
11188;DHT22;5650;52.700;7.306;2023-10-13T13:15:50;21.30;99.90
11188;DHT22;5650;52.700;7.306;2023-10-13T13:18:17;21.30;99.90
11188;DHT22;5650;52.700;7.306;2023-10-13T13:20:51;21.40;99.90
11188;DHT22;5650;52.700;7.306;2023-10-13T13:23:21;21.40;99.90
11188;DHT22;5650;52.700;7.306;2023-10-13T13:25:51;21.40;99.90
11188;DHT22;5650;52.700;7.306;2023-10-13T13:28:21;21.50;99.90
11188;DHT22;5650;52.700;7.306;2023-10-13T13:30:59;21.50;99.90
11188;DHT22;5650;52.700;7.306;2023-10-13T13:33:26;21.50;99.90
11188;DHT22;5650;52.700;7.306;2023-10-13T13:35:58;21.50;99.90
11188;DHT22;5650;52.700;7.306;2023-10-13T13:38:26;21.50;99.90
11188;DHT22;5650;52.700;7.306;2023-10-13T13:40:57;21.50;99.90
11188;DHT22;5650;52.700;7.306;2023-10-13T13:43:28;21.50;99.90
11188;DHT22;5650;52.700;7.306;2023-10-13T13:46:03;21.50;99.90
11188;DHT22;5650;52.700;7.306;2023-10-13T13:48:37;21.50;99.90
11188;DHT22;5650;52.700;7.306;2023-10-13T13:51:06;21.50;99.90
11188;DHT22;5650;52.700;7.306;2023-10-13T13:53:40;21.50;99.90
11188;DHT22;5650;52.700;7.306;2023-10-13T13:56:11;21.40;99.90
11188;DHT22;5650;52.700;7.306;2023-10-13T13:58:43;21.40;99.90
11188;DHT22;5650;52.700;7.306;2023-10-13T14:01:10;21.40;99.90
11188;DHT22;5650;52.700;7.306;2023-10-13T14:03:45;21.30;99.90
11188;DHT22;5650;52.700;7.306;2023-10-13T14:06:13;21.30;99.90
11188;DHT22;5650;52.700;7.306;2023-10-13T14:08:44;21.30;99.90
11188;DHT22;5650;52.700;7.306;2023-10-13T14:11:14;21.30;99.90
11188;DHT22;5650;52.700;7.306;2023-10-13T14:14:11;21.30;99.90
11188;DHT22;5650;52.700;7.306;2023-10-13T14:16:38;21.20;99.90
11188;DHT22;5650;52.700;7.306;2023-10-13T14:19:10;21.20;99.90
11188;DHT22;5650;52.700;7.306;2023-10-13T14:21:37;21.10;99.90
11188;DHT22;5650;52.700;7.306;2023-10-13T14:24:05;21.00;99.90
11188;DHT22;5650;52.700;7.306;2023-10-13T14:26:39;21.00;99.90
11188;DHT22;5650;52.700;7.306;2023-10-13T14:29:10;20.90;99.90
11188;DHT22;5650;52.700;7.306;2023-10-13T14:31:40;20.80;99.90
11188;DHT22;5650;52.700;7.306;2023-10-13T14:34:09;20.70;99.90
11188;DHT22;5650;52.700;7.306;2023-10-13T14:36:36;20.70;99.90
11188;DHT22;5650;52.700;7.306;2023-10-13T14:39:05;20.60;99.90
11188;DHT22;5650;52.700;7.306;2023-10-13T14:41:34;20.50;99.90
11188;DHT22;5650;52.700;7.306;2023-10-13T14:44:03;20.40;99.90
11188;DHT22;5650;52.700;7.306;2023-10-13T14:46:34;20.30;99.90
11188;DHT22;5650;52.700;7.306;2023-10-13T14:49:05;20.30;99.90
11188;DHT22;5650;52.700;7.306;2023-10-13T14:51:32;20.20;99.90
11188;DHT22;5650;52.700;7.306;2023-10-13T14:54:05;20.10;99.90
11188;DHT22;5650;52.700;7.306;2023-10-13T14:56:32;20.10;99.90
11188;DHT22;5650;52.700;7.306;2023-10-13T14:59:00;19.90;99.90
11188;DHT22;5650;52.700;7.306;2023-10-13T15:01:30;19.90;99.90
11188;DHT22;5650;52.700;7.306;2023-10-13T15:03:59;19.80;99.90
11188;DHT22;5650;52.700;7.306;2023-10-13T15:06:29;19.80;99.90
11188;DHT22;5650;52.700;7.306;2023-10-13T15:08:57;19.70;99.90
11188;DHT22;5650;52.700;7.306;2023-10-13T15:11:25;19.70;99.90
11188;DHT22;5650;52.700;7.306;2023-10-13T15:14:01;19.70;99.90
11188;DHT22;5650;52.700;7.306;2023-10-13T15:16:29;19.60;99.90
11188;DHT22;5650;52.700;7.306;2023-10-13T15:18:57;19.50;99.90
11188;DHT22;5650;52.700;7.306;2023-10-13T15:21:30;19.50;99.90
11188;DHT22;5650;52.700;7.306;2023-10-13T15:24:00;19.40;99.90
11188;DHT22;5650;52.700;7.306;2023-10-13T15:26:29;19.40;99.90
11188;DHT22;5650;52.700;7.306;2023-10-13T15:29:03;19.30;99.90
11188;DHT22;5650;52.700;7.306;2023-10-13T15:31:34;19.20;99.90
11188;DHT22;5650;52.700;7.306;2023-10-13T15:34:11;19.20;99.90
11188;DHT22;5650;52.700;7.306;2023-10-13T15:36:40;19.10;99.90
11188;DHT22;5650;52.700;7.306;2023-10-13T15:39:08;19.10;99.90
11188;DHT22;5650;52.700;7.306;2023-10-13T15:41:37;19.00;99.90
11188;DHT22;5650;52.700;7.306;2023-10-13T15:44:05;19.00;99.90
11188;DHT22;5650;52.700;7.306;2023-10-13T15:46:35;19.00;99.90
11188;DHT22;5650;52.700;7.306;2023-10-13T15:49:05;18.90;99.90
11188;DHT22;5650;52.700;7.306;2023-10-13T15:51:34;18.90;99.90
11188;DHT22;5650;52.700;7.306;2023-10-13T15:54:02;18.80;99.90
11188;DHT22;5650;52.700;7.306;2023-10-13T15:56:29;18.80;99.90
11188;DHT22;5650;52.700;7.306;2023-10-13T15:58:58;18.80;99.90
11188;DHT22;5650;52.700;7.306;2023-10-13T16:01:26;18.70;99.90
11188;DHT22;5650;52.700;7.306;2023-10-13T16:03:54;18.70;99.90
11188;DHT22;5650;52.700;7.306;2023-10-13T16:06:21;18.70;99.90
11188;DHT22;5650;52.700;7.306;2023-10-13T16:08:52;18.70;99.90
11188;DHT22;5650;52.700;7.306;2023-10-13T16:11:21;18.70;99.90
11188;DHT22;5650;52.700;7.306;2023-10-13T16:13:49;18.60;99.90
11188;DHT22;5650;52.700;7.306;2023-10-13T16:16:17;18.60;99.90
11188;DHT22;5650;52.700;7.306;2023-10-13T16:18:48;18.60;99.90
11188;DHT22;5650;52.700;7.306;2023-10-13T16:21:16;18.50;99.90
11188;DHT22;5650;52.700;7.306;2023-10-13T16:23:44;18.50;99.90
11188;DHT22;5650;52.700;7.306;2023-10-13T16:26:16;18.50;99.90
11188;DHT22;5650;52.700;7.306;2023-10-13T16:28:47;18.50;99.90
11188;DHT22;5650;52.700;7.306;2023-10-13T16:31:19;18.40;99.90
11188;DHT22;5650;52.700;7.306;2023-10-13T16:33:48;18.40;99.90
11188;DHT22;5650;52.700;7.306;2023-10-13T16:36:16;18.40;99.90